createdAt,value
2023-05-20T00:00:03.907Z,56.4286
2023-05-20T00:01:03.929Z,56.3571
2023-05-20T00:02:03.960Z,56.5
2023-05-20T00:03:04.065Z,56.5
2023-05-20T00:04:04.189Z,56.5
2023-05-20T00:05:04.161Z,56.5714
2023-05-20T00:06:04.062Z,56.5
2023-05-20T00:07:04.080Z,56.5
2023-05-20T00:08:03.096Z,56.5714
2023-05-20T00:09:03.124Z,56.7143
2023-05-20T00:10:03.159Z,56.7143
2023-05-20T00:11:03.167Z,56.7143
2023-05-20T00:12:03.196Z,56.7857
2023-05-20T00:13:03.223Z,56.9286
2023-05-20T00:14:03.198Z,57
2023-05-20T00:15:03.249Z,57
2023-05-20T00:16:03.260Z,57
2023-05-20T00:17:03.247Z,56.9286
2023-05-20T00:18:03.273Z,57
2023-05-20T00:19:03.347Z,57
2023-05-20T00:20:03.288Z,57.0714
2023-05-20T00:21:03.312Z,57.1429
2023-05-20T00:22:03.335Z,57.2143
2023-05-20T00:23:03.377Z,57.2857
2023-05-20T00:24:03.395Z,57.2857
2023-05-20T00:25:03.432Z,57.2143
2023-05-20T00:26:03.450Z,57.2857
2023-05-20T00:27:03.483Z,57.2857
2023-05-20T00:28:03.506Z,57.2857
2023-05-20T00:29:03.510Z,57.3571
2023-05-20T00:30:03.530Z,57.5714
2023-05-20T00:31:03.555Z,57.6429
2023-05-20T00:32:03.601Z,57.5714
2023-05-20T00:33:03.605Z,57.5714
2023-05-20T00:34:03.610Z,57.6429
2023-05-20T00:35:03.627Z,57.7143
2023-05-20T00:36:03.723Z,57.7857
2023-05-20T00:37:03.683Z,57.8571
2023-05-20T00:38:03.670Z,57.9286
2023-05-20T00:39:03.679Z,58
2023-05-20T00:40:03.695Z,58
2023-05-20T00:41:03.696Z,58
2023-05-20T00:42:03.700Z,58.1429
2023-05-20T00:43:03.710Z,58.1429
2023-05-20T00:44:03.735Z,58.2143
2023-05-20T00:45:03.754Z,58.2143
2023-05-20T00:46:03.809Z,58.3571
2023-05-20T00:47:03.808Z,58.3571
2023-05-20T00:48:03.869Z,58.4286
2023-05-20T00:49:03.849Z,58.4286
2023-05-20T00:50:03.877Z,58.4286
2023-05-20T00:51:03.903Z,58.5
2023-05-20T00:52:03.925Z,58.5714
2023-05-20T00:53:03.965Z,58.5714
2023-05-20T00:54:03.973Z,58.5
2023-05-20T00:55:03.992Z,58.5
2023-05-20T00:56:04.017Z,58.5714
2023-05-20T00:57:04.035Z,58.6429
2023-05-20T00:58:04.098Z,58.7143
2023-05-20T00:59:04.077Z,58.7143
2023-05-20T01:00:03.097Z,58.7143
2023-05-20T01:01:03.121Z,58.7857
2023-05-20T01:02:03.179Z,58.8571
2023-05-20T01:03:03.210Z,58.8571
2023-05-20T01:04:03.145Z,58.8571
2023-05-20T01:05:03.149Z,58.8571
2023-05-20T01:06:03.195Z,58.9286
2023-05-20T01:07:03.185Z,59
2023-05-20T01:08:03.172Z,59
2023-05-20T01:09:03.190Z,59.0714
2023-05-20T01:10:03.229Z,59.1429
2023-05-20T01:11:03.251Z,59.2143
2023-05-20T01:12:03.279Z,59.3571
2023-05-20T01:13:03.311Z,59.4286
2023-05-20T01:14:03.333Z,59.5
2023-05-20T01:15:03.350Z,59.5714
2023-05-20T01:16:03.401Z,59.6429
2023-05-20T01:17:03.396Z,59.7143
2023-05-20T01:18:03.464Z,59.7143
2023-05-20T01:19:03.466Z,59.8571
2023-05-20T01:20:03.500Z,59.8571
2023-05-20T01:21:03.505Z,60.0714
2023-05-20T01:22:03.526Z,60.2143
2023-05-20T01:23:03.548Z,60.2857
2023-05-20T01:24:03.563Z,60.2857
2023-05-20T01:25:03.594Z,60.2143
2023-05-20T01:26:03.607Z,60.2857
2023-05-20T01:27:03.630Z,60.3571
2023-05-20T01:28:03.646Z,60.4286
2023-05-20T01:29:03.664Z,60.4286
2023-05-20T01:30:03.684Z,60.5
2023-05-20T01:31:03.717Z,60.5
2023-05-20T01:32:03.719Z,60.5
2023-05-20T01:33:03.753Z,60.5
2023-05-20T01:34:03.719Z,60.5714
2023-05-20T01:35:03.742Z,60.5714
2023-05-20T01:36:03.746Z,60.6429
2023-05-20T01:37:03.752Z,60.6429
2023-05-20T01:38:03.774Z,60.6429
2023-05-20T01:39:03.807Z,60.7143
2023-05-20T01:40:03.826Z,60.7143
2023-05-20T01:41:03.846Z,60.7143
2023-05-20T01:42:03.879Z,60.7857
2023-05-20T01:43:03.908Z,60.7143
2023-05-20T01:44:03.928Z,60.8571
2023-05-20T01:45:03.936Z,60.9286
2023-05-20T01:46:03.978Z,60.9286
2023-05-20T01:47:03.989Z,61.1429
2023-05-20T01:48:04.028Z,61.2857
2023-05-20T01:49:04.041Z,61.2857
2023-05-20T01:50:04.047Z,61.2857
2023-05-20T01:51:04.069Z,61.3571
2023-05-20T01:52:03.083Z,61.4286
2023-05-20T01:53:03.114Z,61.4286
2023-05-20T01:54:03.127Z,61.4286
2023-05-20T01:55:03.142Z,61.5714
2023-05-20T01:56:03.152Z,61.7143
2023-05-20T01:57:03.224Z,61.9286
2023-05-20T01:58:03.186Z,62.0714
2023-05-20T01:59:03.194Z,62.0714
2023-05-20T02:00:03.214Z,62.1429
2023-05-20T02:01:03.390Z,62.2143
2023-05-20T02:02:03.269Z,62.2857
2023-05-20T02:03:03.306Z,62.5
2023-05-20T02:04:03.273Z,62.5714
2023-05-20T02:05:03.291Z,62.6429
2023-05-20T02:06:03.385Z,62.6429
2023-05-20T02:07:03.343Z,62.7143
2023-05-20T02:08:03.373Z,62.7857
2023-05-20T02:09:03.404Z,62.9286
2023-05-20T02:10:03.428Z,63.0714
2023-05-20T02:11:03.451Z,63.1429
2023-05-20T02:12:03.466Z,63.2857
2023-05-20T02:13:03.500Z,63.4286
2023-05-20T02:14:03.522Z,63.4286
2023-05-20T02:15:03.547Z,63.5
2023-05-20T02:16:03.604Z,63.5
2023-05-20T02:17:03.595Z,63.5714
2023-05-20T02:18:03.631Z,63.6429
2023-05-20T02:19:03.735Z,63.7143
2023-05-20T02:20:03.650Z,63.7857
2023-05-20T02:21:03.670Z,63.7857
2023-05-20T02:22:03.680Z,63.8571
2023-05-20T02:23:03.694Z,64
2023-05-20T02:24:03.703Z,63.9286
2023-05-20T02:25:03.712Z,63.9286
2023-05-20T02:26:03.708Z,63.9286
2023-05-20T02:27:03.728Z,64.0714
2023-05-20T02:28:03.748Z,64.0714
2023-05-20T02:29:03.772Z,64.0714
2023-05-20T02:30:03.793Z,64.2143
2023-05-20T02:31:03.819Z,64.2143
2023-05-20T02:32:03.851Z,64.2143
2023-05-20T02:33:03.939Z,64.2857
2023-05-20T02:34:03.938Z,64.3571
2023-05-20T02:35:03.943Z,64.4286
2023-05-20T02:36:03.974Z,64.4286
2023-05-20T02:37:03.992Z,64.5
2023-05-20T02:38:04.026Z,64.6429
2023-05-20T02:39:04.055Z,64.7143
2023-05-20T02:40:04.080Z,64.7143
2023-05-20T02:41:03.112Z,64.8571
2023-05-20T02:42:03.138Z,64.8571
2023-05-20T02:43:03.195Z,64.9286
2023-05-20T02:44:03.207Z,65
2023-05-20T02:45:03.197Z,65.0714
2023-05-20T02:46:03.269Z,65.0714
2023-05-20T02:47:03.236Z,65.1429
2023-05-20T02:48:03.294Z,65.1429
2023-05-20T02:49:03.278Z,65.1429
2023-05-20T02:50:03.312Z,65
2023-05-20T02:51:03.306Z,65
2023-05-20T02:52:03.318Z,64.9286
2023-05-20T02:53:03.338Z,65
2023-05-20T02:54:03.342Z,65
2023-05-20T02:55:03.352Z,65
2023-05-20T02:56:03.352Z,64.9286
2023-05-20T02:57:03.370Z,64.8571
2023-05-20T02:58:03.391Z,64.8571
2023-05-20T02:59:03.409Z,64.8571
2023-05-20T03:00:03.468Z,64.8571
2023-05-20T03:01:03.513Z,64.8571
2023-05-20T03:02:03.489Z,64.9286
2023-05-20T03:03:03.599Z,64.9286
2023-05-20T03:04:03.687Z,64.9286
2023-05-20T03:05:03.571Z,65
2023-05-20T03:06:03.596Z,65
2023-05-20T03:07:03.620Z,65
2023-05-20T03:08:03.639Z,65.0714
2023-05-20T03:09:03.672Z,65.0714
2023-05-20T03:10:03.680Z,65.1429
2023-05-20T03:11:04.801Z,65.1429
2023-05-20T03:12:03.745Z,65.1429
2023-05-20T03:13:03.748Z,65.1429
2023-05-20T03:14:03.758Z,65.1429
2023-05-20T03:15:03.878Z,65.0714
2023-05-20T03:16:03.845Z,65
2023-05-20T03:17:03.800Z,64.9286
2023-05-20T03:18:03.840Z,64.8571
2023-05-20T03:19:03.885Z,64.8571
2023-05-20T03:20:03.823Z,64.8571
2023-05-20T03:21:03.828Z,64.7857
2023-05-20T03:22:03.857Z,64.7857
2023-05-20T03:23:03.882Z,64.7857
2023-05-20T03:24:03.916Z,64.7857
2023-05-20T03:25:03.929Z,64.7857
2023-05-20T03:26:03.961Z,64.7857
2023-05-20T03:27:03.978Z,64.7857
2023-05-20T03:28:04.003Z,64.7143
2023-05-20T03:29:04.026Z,64.7143
2023-05-20T03:30:04.052Z,64.7143
2023-05-20T03:31:04.070Z,64.7143
2023-05-20T03:32:03.096Z,64.6429
2023-05-20T03:33:03.298Z,64.5714
2023-05-20T03:34:03.137Z,64.5714
2023-05-20T03:35:03.153Z,64.5
2023-05-20T03:36:03.170Z,64.5
2023-05-20T03:37:03.191Z,64.4286
2023-05-20T03:38:03.216Z,64.3571
2023-05-20T03:39:03.212Z,64.2143
2023-05-20T03:40:03.228Z,64.2143
2023-05-20T03:41:03.252Z,64.2143
2023-05-20T03:42:03.256Z,64.0714
2023-05-20T03:43:03.255Z,64
2023-05-20T03:44:03.272Z,63.9286
2023-05-20T03:45:03.281Z,63.8571
2023-05-20T03:46:03.300Z,63.8571
2023-05-20T03:47:03.428Z,63.7857
2023-05-20T03:48:03.416Z,63.7143
2023-05-20T03:49:03.376Z,63.6429
2023-05-20T03:50:03.416Z,63.5714
2023-05-20T03:51:03.437Z,63.5714
2023-05-20T03:52:03.467Z,63.5
2023-05-20T03:53:03.481Z,63.5
2023-05-20T03:54:03.508Z,63.5
2023-05-20T03:55:03.531Z,63.4286
2023-05-20T03:56:03.556Z,63.4286
2023-05-20T03:57:03.589Z,63.3571
2023-05-20T03:58:03.610Z,63.4286
2023-05-20T03:59:03.639Z,63.2857
2023-05-20T04:00:03.657Z,63.2857
2023-05-20T04:01:03.690Z,63.3571
2023-05-20T04:02:03.776Z,63.3571
2023-05-20T04:03:03.768Z,63.3571
2023-05-20T04:04:03.776Z,63.3571
2023-05-20T04:05:03.770Z,63.3571
2023-05-20T04:06:03.785Z,63.2857
2023-05-20T04:07:03.799Z,63.2143
2023-05-20T04:08:03.820Z,63.2143
2023-05-20T04:09:03.824Z,63.1429
2023-05-20T04:10:03.854Z,63.2143
2023-05-20T04:11:03.859Z,63.2143
2023-05-20T04:12:03.889Z,63.2857
2023-05-20T04:13:03.904Z,63.2857
2023-05-20T04:14:03.893Z,63.2143
2023-05-20T04:15:03.909Z,63.2857
2023-05-20T04:16:03.955Z,63.2857
2023-05-20T04:17:04.010Z,63.2143
2023-05-20T04:18:04.045Z,63.1429
2023-05-20T04:19:04.064Z,63.2143
2023-05-20T04:20:04.049Z,63.2143
2023-05-20T04:21:04.066Z,63.2143
2023-05-20T04:22:03.095Z,63.2143
2023-05-20T04:23:03.112Z,63.2143
2023-05-20T04:24:03.131Z,63.2143
2023-05-20T04:25:03.169Z,63.1429
2023-05-20T04:26:03.186Z,63.2143
2023-05-20T04:27:03.202Z,63.2143
2023-05-20T04:28:03.227Z,63.2143
2023-05-20T04:29:03.245Z,63.2143
2023-05-20T04:30:03.280Z,63.2857
2023-05-20T04:31:03.297Z,63.2143
2023-05-20T04:32:03.337Z,63.1429
2023-05-20T04:33:03.384Z,63.2143
2023-05-20T04:34:03.344Z,63.1429
2023-05-20T04:35:03.366Z,63.0714
2023-05-20T04:36:03.379Z,63.0714
2023-05-20T04:37:03.410Z,62.9286
2023-05-20T04:38:03.419Z,62.8571
2023-05-20T04:39:03.435Z,62.9286
2023-05-20T04:40:03.453Z,62.9286
2023-05-20T04:41:03.445Z,62.9286
2023-05-20T04:42:03.458Z,62.9286
2023-05-20T04:43:03.474Z,63
2023-05-20T04:44:03.501Z,63
2023-05-20T04:45:03.544Z,63
2023-05-20T04:46:03.601Z,62.9286
2023-05-20T04:47:03.591Z,63
2023-05-20T04:48:03.634Z,63
2023-05-20T04:49:03.643Z,63
2023-05-20T04:50:03.656Z,62.9286
2023-05-20T04:51:03.681Z,62.7857
2023-05-20T04:52:03.698Z,62.7857
2023-05-20T04:53:03.726Z,62.7857
2023-05-20T04:54:03.750Z,62.7857
2023-05-20T04:55:03.774Z,62.8571
2023-05-20T04:56:03.795Z,62.9286
2023-05-20T04:57:03.811Z,62.9286
2023-05-20T04:58:03.843Z,63
2023-05-20T04:59:03.849Z,63
2023-05-20T05:00:03.871Z,63
2023-05-20T05:01:03.929Z,63.0714
2023-05-20T05:02:03.914Z,63.2143
2023-05-20T05:03:03.992Z,63.2857
2023-05-20T05:04:03.965Z,63.2143
2023-05-20T05:05:04.067Z,63.2143
2023-05-20T05:06:03.964Z,63.2143
2023-05-20T05:07:03.992Z,63.2857
2023-05-20T05:08:04.015Z,63.2143
2023-05-20T05:09:04.007Z,63.2143
2023-05-20T05:10:04.061Z,63.2143
2023-05-20T05:11:04.039Z,63.1429
2023-05-20T05:12:04.061Z,63.2143
2023-05-20T05:13:03.094Z,63.2143
2023-05-20T05:14:03.113Z,63.2857
2023-05-20T05:15:03.156Z,63.2857
2023-05-20T05:16:03.245Z,63.2857
2023-05-20T05:17:03.227Z,63.2857
2023-05-20T05:18:03.290Z,63.2143
2023-05-20T05:19:03.293Z,63.2143
2023-05-20T05:20:03.270Z,63.2143
2023-05-20T05:21:03.313Z,63.1429
2023-05-20T05:22:03.321Z,63.2143
2023-05-20T05:23:03.343Z,63.1429
2023-05-20T05:24:03.382Z,63.1429
2023-05-20T05:25:03.397Z,63.0714
2023-05-20T05:26:03.411Z,63.1429
2023-05-20T05:27:03.435Z,63.2143
2023-05-20T05:28:03.460Z,63.2857
2023-05-20T05:29:03.475Z,63.2143
2023-05-20T05:30:03.484Z,63.2143
2023-05-20T05:31:03.500Z,63.2143
2023-05-20T05:32:03.553Z,63.1429
2023-05-20T05:33:03.606Z,63.1429
2023-05-20T05:34:03.524Z,63.1429
2023-05-20T05:35:04.258Z,63.1429
2023-05-20T05:36:03.542Z,63.0714
2023-05-20T05:37:03.569Z,63.1429
2023-05-20T05:38:03.608Z,63.1429
2023-05-20T05:39:03.633Z,63.2143
2023-05-20T05:40:03.685Z,63.0714
2023-05-20T05:41:03.686Z,63
2023-05-20T05:42:03.696Z,62.9286
2023-05-20T05:43:03.721Z,63
2023-05-20T05:44:03.730Z,62.9286
2023-05-20T05:45:03.751Z,62.7857
2023-05-20T05:46:03.798Z,62.7857
2023-05-20T05:47:03.845Z,62.8571
2023-05-20T05:48:03.853Z,62.7857
2023-05-20T05:49:03.844Z,62.7857
2023-05-20T05:50:03.875Z,62.7143
2023-05-20T05:51:03.873Z,62.6429
2023-05-20T05:52:03.884Z,62.5
2023-05-20T05:53:03.916Z,62.5
2023-05-20T05:54:03.937Z,62.5714
2023-05-20T05:55:03.946Z,62.5
2023-05-20T05:56:03.951Z,62.4286
2023-05-20T05:57:06.408Z,62.4286
2023-05-20T05:58:03.974Z,62.4286
2023-05-20T05:59:03.985Z,62.2857
2023-05-20T06:00:04.000Z,62.3571
2023-05-20T06:01:04.042Z,62.3571
2023-05-20T06:02:04.080Z,62.2857
2023-05-20T06:03:04.201Z,62.2857
2023-05-20T06:04:03.238Z,62.2857
2023-05-20T06:05:03.122Z,62.2143
2023-05-20T06:06:03.171Z,62.2143
2023-05-20T06:07:03.192Z,62.2143
2023-05-20T06:08:03.197Z,62.1429
2023-05-20T06:09:03.209Z,62.1429
2023-05-20T06:10:03.273Z,62.1429
2023-05-20T06:11:03.255Z,62.2143
2023-05-20T06:12:03.278Z,62.2143
2023-05-20T06:13:03.299Z,62.2857
2023-05-20T06:14:03.317Z,62.2857
2023-05-20T06:15:03.326Z,62.3571
2023-05-20T06:16:03.357Z,62.3571
2023-05-20T06:17:03.406Z,62.3571
2023-05-20T06:18:03.414Z,62.4286
2023-05-20T06:19:03.898Z,62.4286
2023-05-20T06:20:03.382Z,62.4286
2023-05-20T06:21:03.398Z,62.3571
2023-05-20T06:22:03.397Z,62.4286
2023-05-20T06:23:03.411Z,62.5
2023-05-20T06:24:03.436Z,62.4286
2023-05-20T06:25:03.477Z,62.2857
2023-05-20T06:26:03.706Z,62.2857
2023-05-20T06:27:03.525Z,62.3571
2023-05-20T06:28:03.544Z,62.3571
2023-05-20T06:29:03.575Z,62.2143
2023-05-20T06:30:03.606Z,62.2143
2023-05-20T06:31:03.641Z,62.2143
2023-05-20T06:32:03.656Z,62.2857
2023-05-20T06:33:03.691Z,62.2857
2023-05-20T06:34:03.706Z,62.2143
2023-05-20T06:35:03.728Z,62.0714
2023-05-20T06:36:03.769Z,62
2023-05-20T06:37:03.780Z,61.9286
2023-05-20T06:38:03.854Z,61.9286
2023-05-20T06:39:03.833Z,62
2023-05-20T06:40:03.852Z,62.0714
2023-05-20T06:41:03.877Z,62.0714
2023-05-20T06:42:03.900Z,62
2023-05-20T06:43:03.907Z,61.8571
2023-05-20T06:44:03.920Z,61.7143
2023-05-20T06:45:03.955Z,61.7143
2023-05-20T06:46:03.980Z,61.7143
2023-05-20T06:47:03.966Z,61.5714
2023-05-20T06:48:04.059Z,61.4286
2023-05-20T06:49:03.996Z,61.2857
2023-05-20T06:50:04.004Z,61.2143
2023-05-20T06:51:04.015Z,61.0714
2023-05-20T06:52:04.023Z,61.1429
2023-05-20T06:53:04.043Z,61.1429
2023-05-20T06:54:04.062Z,61.2857
2023-05-20T06:55:03.105Z,61.0714
2023-05-20T06:56:03.159Z,61
2023-05-20T06:57:03.181Z,60.8571
2023-05-20T06:58:03.180Z,60.8571
2023-05-20T06:59:03.246Z,60.8571
2023-05-20T07:00:03.243Z,60.8571
2023-05-20T07:01:03.267Z,60.7857
2023-05-20T07:02:03.331Z,60.7143
2023-05-20T07:03:03.483Z,60.6429
2023-05-20T07:04:03.406Z,60.6429
2023-05-20T07:05:03.386Z,60.7143
2023-05-20T07:06:03.379Z,60.6429
2023-05-20T07:07:03.382Z,60.8571
2023-05-20T07:08:03.407Z,60.8571
2023-05-20T07:09:03.419Z,60.6429
2023-05-20T07:10:03.443Z,60.4286
2023-05-20T07:11:03.448Z,60.4286
2023-05-20T07:12:03.466Z,60.3571
2023-05-20T07:13:03.483Z,60.5
2023-05-20T07:14:03.496Z,60.5714
2023-05-20T07:15:03.490Z,60.7143
2023-05-20T07:16:03.556Z,60.7143
2023-05-20T07:17:03.511Z,60.6429
2023-05-20T07:18:03.544Z,60.5714
2023-05-20T07:19:03.568Z,60.6429
2023-05-20T07:20:03.577Z,60.5714
2023-05-20T07:21:03.594Z,60.5714
2023-05-20T07:22:03.633Z,60.5
2023-05-20T07:23:03.660Z,60.7143
2023-05-20T07:24:03.676Z,60.6429
2023-05-20T07:25:03.709Z,60.5714
2023-05-20T07:26:03.731Z,60.6429
2023-05-20T07:27:03.743Z,60.7857
2023-05-20T07:28:03.768Z,60.8571
2023-05-20T07:29:03.798Z,60.5714
2023-05-20T07:30:03.821Z,60.5
2023-05-20T07:31:03.834Z,60.2857
2023-05-20T07:32:03.881Z,60.2143
2023-05-20T07:33:03.957Z,60.3571
2023-05-20T07:34:03.892Z,60.2857
2023-05-20T07:35:03.907Z,60.1429
2023-05-20T07:36:03.936Z,60.0714
2023-05-20T07:37:03.944Z,60.0714
2023-05-20T07:38:03.956Z,60
2023-05-20T07:39:06.204Z,59.7143
2023-05-20T07:40:03.970Z,59.6429
2023-05-20T07:41:03.975Z,59.7143
2023-05-20T07:42:04.005Z,59.5714
2023-05-20T07:43:04.027Z,59.5
2023-05-20T07:44:04.056Z,59.5714
2023-05-20T07:45:04.073Z,59.3571
2023-05-20T07:46:03.114Z,59.0714
2023-05-20T07:47:03.132Z,58.7857
2023-05-20T07:48:03.224Z,58.7857
2023-05-20T07:49:03.170Z,58.7857
2023-05-20T07:50:03.220Z,58.7143
2023-05-20T07:51:03.229Z,58.5714
2023-05-20T07:52:03.424Z,58.5714
2023-05-20T07:53:03.278Z,58.5
2023-05-20T07:54:03.293Z,58.5714
2023-05-20T07:55:03.307Z,58.5714
2023-05-20T07:56:03.334Z,58.2857
2023-05-20T07:57:03.348Z,58.1429
2023-05-20T07:58:03.385Z,57.9286
2023-05-20T07:59:03.468Z,57.9286
2023-05-20T08:00:03.400Z,57.9286
2023-05-20T08:01:03.414Z,57.9286
2023-05-20T08:02:03.481Z,57.7143
2023-05-20T08:03:03.581Z,57.6429
2023-05-20T08:04:03.557Z,57.4286
2023-05-20T08:05:03.488Z,57.4286
2023-05-20T08:06:03.501Z,57.7857
2023-05-20T08:07:03.517Z,58
2023-05-20T08:08:03.521Z,58
2023-05-20T08:09:03.540Z,57.7857
2023-05-20T08:10:03.569Z,57.6429
2023-05-20T08:11:03.600Z,57.5
2023-05-20T08:12:03.611Z,57.3571
2023-05-20T08:13:03.637Z,57.0714
2023-05-20T08:14:03.671Z,57
2023-05-20T08:15:03.688Z,56.7143
2023-05-20T08:16:03.710Z,56.5
2023-05-20T08:17:03.861Z,56.6429
2023-05-20T08:18:03.788Z,56.7143
2023-05-20T08:19:03.816Z,56.7857
2023-05-20T08:20:03.789Z,56.8571
2023-05-20T08:21:03.809Z,56.7857
2023-05-20T08:22:03.825Z,56.3571
2023-05-20T08:23:03.841Z,56.5
2023-05-20T08:24:03.869Z,56.3571
2023-05-20T08:25:03.868Z,56.4286
2023-05-20T08:26:03.889Z,56
2023-05-20T08:27:03.920Z,55.9286
2023-05-20T08:28:03.988Z,55.3571
2023-05-20T08:29:03.942Z,55.4286
2023-05-20T08:30:03.946Z,55.3571
2023-05-20T08:31:04.016Z,55.2857
2023-05-20T08:32:03.965Z,55.5714
2023-05-20T08:33:04.034Z,55.5714
2023-05-20T08:34:04.023Z,55.1429
2023-05-20T08:35:04.048Z,54.8571
2023-05-20T08:36:04.078Z,54.6429
2023-05-20T08:37:03.120Z,54.7857
2023-05-20T08:38:03.124Z,54.9286
2023-05-20T08:39:03.146Z,55
2023-05-20T08:40:03.176Z,54.5714
2023-05-20T08:41:04.090Z,54.2143
2023-05-20T08:42:03.213Z,54
2023-05-20T08:43:03.244Z,53.8571
2023-05-20T08:44:03.264Z,53.6429
2023-05-20T08:45:03.293Z,53.7143
2023-05-20T08:46:03.343Z,53.7143
2023-05-20T08:47:03.330Z,53.5
2023-05-20T08:48:03.394Z,53.3571
2023-05-20T08:49:03.375Z,53.5714
2023-05-20T08:50:03.394Z,53.5714
2023-05-20T08:51:03.439Z,53.5
2023-05-20T08:52:03.434Z,53.1429
2023-05-20T08:53:03.468Z,53.5
2023-05-20T08:54:03.465Z,53.2857
2023-05-20T08:55:03.505Z,53.2857
2023-05-20T08:56:03.929Z,53
2023-05-20T08:57:03.525Z,52.5
2023-05-20T08:58:03.528Z,52.4286
2023-05-20T08:59:03.536Z,52.0714
2023-05-20T09:00:03.543Z,51.7857
2023-05-20T09:01:03.560Z,51.2857
2023-05-20T09:02:03.574Z,51.5714
2023-05-20T09:03:03.611Z,51.5
2023-05-20T09:04:03.618Z,51.6429
2023-05-20T09:05:03.677Z,51.7857
2023-05-20T09:06:03.675Z,51.9286
2023-05-20T09:07:03.697Z,52.1429
2023-05-20T09:08:05.221Z,52.1429
2023-05-20T09:09:03.754Z,51.9286
2023-05-20T09:10:03.771Z,51.8571
2023-05-20T09:11:03.806Z,52.2143
2023-05-20T09:12:03.828Z,52.1429
2023-05-20T09:13:03.852Z,51.4286
2023-05-20T09:14:03.883Z,51.4286
2023-05-20T09:15:03.930Z,51.5714
2023-05-20T09:16:04.061Z,50.8571
2023-05-20T09:17:03.970Z,51.0714
2023-05-20T09:18:04.030Z,51.1429
2023-05-20T09:19:04.089Z,51
2023-05-20T09:20:04.042Z,51.1429
2023-05-20T09:21:04.066Z,51.5
2023-05-20T09:22:04.086Z,51.6429
2023-05-20T09:23:03.120Z,51.5
2023-05-20T09:24:03.144Z,51.2143
2023-05-20T09:25:03.150Z,50.8571
2023-05-20T09:26:03.176Z,51.0714
2023-05-20T09:27:03.202Z,50.7143
2023-05-20T09:28:03.223Z,50.6429
2023-05-20T09:29:03.252Z,50.8571
2023-05-20T09:30:03.265Z,51.2143
2023-05-20T09:31:03.275Z,51.4286
2023-05-20T09:32:03.331Z,51.5714
2023-05-20T09:33:03.379Z,51.7143
2023-05-20T09:34:03.348Z,51.8571
2023-05-20T09:35:03.331Z,52.0714
2023-05-20T09:36:03.353Z,51.6429
2023-05-20T09:37:03.330Z,51.7857
2023-05-20T09:38:03.340Z,51.6429
2023-05-20T09:39:03.376Z,51.7857
2023-05-20T09:40:03.406Z,52
2023-05-20T09:41:03.442Z,51.8571
2023-05-20T09:42:04.052Z,51.7143
2023-05-20T09:43:03.493Z,51.4286
2023-05-20T09:44:03.519Z,51.3571
2023-05-20T09:45:03.549Z,51.4286
2023-05-20T09:46:03.613Z,51.7857
2023-05-20T09:47:03.608Z,51.5714
2023-05-20T09:48:03.757Z,51.5714
2023-05-20T09:49:03.660Z,51.6429
2023-05-20T09:50:03.694Z,51.2857
2023-05-20T09:51:03.718Z,51.5
2023-05-20T09:52:03.745Z,51.2857
2023-05-20T09:53:03.765Z,50.9286
2023-05-20T09:54:03.803Z,50.7857
2023-05-20T09:55:03.815Z,50.9286
2023-05-20T09:56:03.854Z,50.9286
2023-05-20T09:57:03.861Z,50.7857
2023-05-20T09:58:03.876Z,50.6429
2023-05-20T09:59:03.898Z,50.9286
2023-05-20T10:00:03.913Z,50.9286
2023-05-20T10:01:04.027Z,51
2023-05-20T10:02:03.955Z,50.9286
2023-05-20T10:03:04.054Z,50.7857
2023-05-20T10:04:04.056Z,50.9286
2023-05-20T10:05:04.003Z,51.1429
2023-05-20T10:06:04.024Z,51.0714
2023-05-20T10:07:04.023Z,51.2857
2023-05-20T10:08:04.027Z,50.8571
2023-05-20T10:09:04.040Z,50.9286
2023-05-20T10:10:04.068Z,50.7143
2023-05-20T10:11:03.104Z,50.5
2023-05-20T10:12:03.125Z,50.9286
2023-05-20T10:13:03.138Z,50.8571
2023-05-20T10:14:03.163Z,51.2143
2023-05-20T10:15:03.191Z,51.1429
2023-05-20T10:16:03.313Z,50.7143
2023-05-20T10:17:03.250Z,50.5714
2023-05-20T10:18:03.324Z,50.3571
2023-05-20T10:19:03.351Z,50.2143
2023-05-20T10:20:05.263Z,50.3571
2023-05-20T10:21:03.355Z,50.1429
2023-05-20T10:22:03.380Z,50.2143
2023-05-20T10:23:03.380Z,50.4286
2023-05-20T10:24:03.395Z,50.2857
2023-05-20T10:25:03.420Z,50.0714
2023-05-20T10:26:03.430Z,50.2143
2023-05-20T10:27:03.493Z,49.7857
2023-05-20T10:28:03.518Z,50
2023-05-20T10:29:03.505Z,49.7857
2023-05-20T10:30:03.536Z,49.5
2023-05-20T10:31:03.525Z,49.8571
2023-05-20T10:32:03.632Z,49.7857
2023-05-20T10:33:03.692Z,49.3571
2023-05-20T10:34:03.547Z,49.2143
2023-05-20T10:35:03.569Z,48.9286
2023-05-20T10:36:03.582Z,49.0714
2023-05-20T10:37:03.620Z,49
2023-05-20T10:38:03.643Z,48.7857
2023-05-20T10:39:03.673Z,48.5
2023-05-20T10:40:03.691Z,48.2143
2023-05-20T10:41:03.724Z,48.2143
2023-05-20T10:42:03.764Z,48.3571
2023-05-20T10:43:03.781Z,48.0714
2023-05-20T10:44:03.819Z,48.1429
2023-05-20T10:45:03.822Z,48.5714
2023-05-20T10:46:05.310Z,48.4286
2023-05-20T10:48:04.033Z,48.4286
2023-05-20T10:49:04.178Z,48.4286
2023-05-20T10:50:03.967Z,48.8571
2023-05-20T10:51:04.003Z,48.5
2023-05-20T10:52:03.985Z,48.5
2023-05-20T10:53:04.007Z,48.7857
2023-05-20T10:54:04.030Z,48.1429
2023-05-20T10:55:04.081Z,48
2023-05-20T10:56:04.093Z,48.1429
2023-05-20T10:57:03.143Z,48.1429
2023-05-20T10:58:03.110Z,48.7857
2023-05-20T10:59:03.124Z,48.5714
2023-05-20T11:00:03.147Z,48.3571
2023-05-20T11:01:03.199Z,47.9286
2023-05-20T11:02:03.173Z,48.2857
2023-05-20T11:03:03.255Z,48.2143
2023-05-20T11:04:03.284Z,47.5714
2023-05-20T11:05:03.198Z,48.1429
2023-05-20T11:06:03.227Z,48.2857
2023-05-20T11:07:03.270Z,47.4286
2023-05-20T11:08:07.947Z,47.4286
2023-05-20T11:09:03.307Z,47.5714
2023-05-20T11:10:03.320Z,47.8571
2023-05-20T11:11:03.357Z,47.7857
2023-05-20T11:12:03.397Z,48.2143
2023-05-20T11:13:03.439Z,48.1429
2023-05-20T11:14:03.425Z,47.9286
2023-05-20T11:15:03.462Z,48
2023-05-20T11:16:03.479Z,48.2857
2023-05-20T11:17:03.610Z,48.3571
2023-05-20T11:18:03.593Z,48.7857
2023-05-20T11:19:03.560Z,48.1429
2023-05-20T11:20:03.570Z,48.5
2023-05-20T11:21:03.601Z,48.5714
2023-05-20T11:22:03.599Z,48.5714
2023-05-20T11:23:03.630Z,48.2857
2023-05-20T11:24:03.620Z,47.7143
2023-05-20T11:25:03.637Z,47.9286
2023-05-20T11:26:03.635Z,47.7857
2023-05-20T11:27:03.636Z,47.9286
2023-05-20T11:28:03.678Z,48.0714
2023-05-20T11:29:03.686Z,47.8571
2023-05-20T11:30:03.704Z,48.0714
2023-05-20T11:31:03.728Z,48.1429
2023-05-20T11:32:03.828Z,48.6429
2023-05-20T11:33:03.898Z,48.0714
2023-05-20T11:34:03.812Z,47.7857
2023-05-20T11:35:03.855Z,47.7143
2023-05-20T11:36:08.682Z,48.4286
2023-05-20T11:37:03.869Z,48.2143
2023-05-20T11:38:03.890Z,48.1429
2023-05-20T11:39:03.925Z,48
2023-05-20T11:40:03.964Z,48.5
2023-05-20T11:41:03.960Z,48.4286
2023-05-20T11:42:03.984Z,49.0714
2023-05-20T11:43:04.000Z,48.6429
2023-05-20T11:44:04.030Z,48.0714
2023-05-20T11:45:04.033Z,47.5714
2023-05-20T11:46:04.107Z,47.4286
2023-05-20T11:47:04.074Z,47.2143
2023-05-20T11:48:04.141Z,47.3571
2023-05-20T11:49:03.098Z,47.5714
2023-05-20T11:50:03.126Z,47.5714
2023-05-20T11:51:03.128Z,47.3571
2023-05-20T11:52:03.151Z,47.6429
2023-05-20T11:53:03.150Z,47.5714
2023-05-20T11:54:03.167Z,47.4286
2023-05-20T11:55:03.184Z,47.2857
2023-05-20T11:56:03.255Z,47.5
2023-05-20T11:57:05.113Z,47.6429
2023-05-20T11:58:03.248Z,47.7857
2023-05-20T11:59:03.277Z,47.4286
2023-05-20T12:00:03.326Z,47.6429
2023-05-20T12:01:13.962Z,47.9286
2023-05-20T12:02:03.373Z,48.0714
2023-05-20T12:03:03.470Z,48.2857
2023-05-20T12:04:03.533Z,48.3571
2023-05-20T12:05:03.491Z,48.0714
2023-05-20T12:06:03.464Z,47.8571
2023-05-20T12:07:03.490Z,48
2023-05-20T12:08:03.497Z,48.5714
2023-05-20T12:09:03.514Z,48.9286
2023-05-20T12:10:03.527Z,48.4286
2023-05-20T12:11:03.553Z,48.6429
2023-05-20T12:12:03.595Z,48.4286
2023-05-20T12:13:03.562Z,47.8571
2023-05-20T12:14:03.619Z,47.7857
2023-05-20T12:15:03.579Z,48.1429
2023-05-20T12:16:03.651Z,48.2143
2023-05-20T12:17:03.604Z,48.1429
2023-05-20T12:18:03.649Z,47.7857
2023-05-20T12:19:03.708Z,47.5